GLOO2: Glover Creek, Glover, OK

Data processed at Sun Sep 23 2018 22:02


All information presented herein is the property of the government of the United States of America and may be revised or deleted at any time without prior notice.
Dissemination of this information without the expressed written consent of the Public Affairs Office, Tulsa District U.S. Army Corps of Engineers is strictly prohibited.
These data are gathered electronically and, as presented, have not undergone any form of quality control. These data are not guaranteed to be valid or correct.
Go to home page.
Go to station list.
Go to home page.

Downstream station:


Previous Day
Next Day
Current Day
    
SHEF ID:       GLOO2     Glover River near Glover, OK
STATION TYPE:  

               PRECIP     STAGE  RIV-FLOW  BAT-LOAD
                   in        ft       cfs      volt
              Ccp-Rev   Ccp-Rev   Ccp-Rev   Ccp-Rev
(US/Central)
09/23 00:00      0.00      8.01      4357     12.60
09/23 01:00      0.03      8.41      5028     12.60
09/23 02:00      0.02      8.28      4806     12.60
09/23 03:00      0.03      8.03      4389     12.60
09/23 04:00      0.15      7.78      3994     12.60
09/23 05:00      0.14      7.59      3708     12.60
09/23 06:00      0.26      7.44      3490     12.60
09/23 07:00      0.06      7.30      3293     12.60
09/23 08:00      0.01      7.16      3102     12.60
09/23 09:00      0.00      7.06      2970     12.60
09/23 10:00      0.01      6.95      2823     12.65
09/23 11:00      0.00      6.83      2665     12.71
09/23 12:00      0.00      6.72      2524     12.89
09/23 13:00      0.00      6.63      2412     13.12
09/23 14:00      0.00      6.58      2350     13.18
09/23 15:00      0.00      6.47      2218     13.24
09/23 16:00      0.00      6.43      2171     13.24
09/23 17:00      0.00      6.32      2045     13.00
09/23 18:00      0.00      6.28      2000     12.89
09/23 19:00      0.00      6.18      1887     12.83
09/23 20:00      0.00      6.14      1842     12.77
09/23 21:00      0.00      6.07      1765     12.71
09/23 22:00      ----      ----      ----      ----
09/23 23:00      ----      ----      ----      ----